createdAt,value
2024-01-20T00:01:20.307Z,18.58
2024-01-20T00:04:22.281Z,18.67
2024-01-20T00:07:24.271Z,18.15
2024-01-20T00:10:25.991Z,19.33
2024-01-20T00:13:27.669Z,18.50
2024-01-20T00:16:29.397Z,18.35
2024-01-20T00:19:31.283Z,17.60
2024-01-20T00:22:33.248Z,17.17
2024-01-20T00:25:35.250Z,17.77
2024-01-20T00:28:37.335Z,15.88
2024-01-20T00:31:39.307Z,16.05
2024-01-20T00:34:51.571Z,17.27
2024-01-20T00:38:02.136Z,16.38
2024-01-20T00:41:04.056Z,17.25
2024-01-20T00:44:06.055Z,16.80
2024-01-20T00:47:08.093Z,17.38
2024-01-20T00:50:10.270Z,15.45
2024-01-20T00:53:11.989Z,16.45
2024-01-20T00:56:13.771Z,15.27
2024-01-20T00:59:15.573Z,15.27
2024-01-20T01:02:19.867Z,14.68
2024-01-20T01:05:21.773Z,15.70
2024-01-20T01:08:23.442Z,13.20
2024-01-20T01:11:25.193Z,14.75
2024-01-20T01:14:26.943Z,14.30
2024-01-20T01:17:28.826Z,14.40
2024-01-20T01:20:30.558Z,13.75
2024-01-20T01:23:32.527Z,12.40
2024-01-20T01:26:34.382Z,12.25
2024-01-20T01:29:36.312Z,12.23
2024-01-20T01:32:38.457Z,12.13
2024-01-20T01:35:40.202Z,11.60
2024-01-20T01:38:41.868Z,12.60
2024-01-20T01:41:45.167Z,13.05
2024-01-20T01:44:46.870Z,11.80
2024-01-20T01:47:49.412Z,11.15
2024-01-20T01:50:54.733Z,11.60
2024-01-20T01:53:58.867Z,12.30
2024-01-20T01:57:01.561Z,12.02
2024-01-20T02:00:05.487Z,11.98
2024-01-20T02:03:09.294Z,10.75
2024-01-20T02:06:11.273Z,11.68
2024-01-20T02:09:14.330Z,12.50
2024-01-20T02:12:16.613Z,11.43
2024-01-20T02:15:19.082Z,12.10
2024-01-20T02:18:23.927Z,12.52
2024-01-20T02:21:25.809Z,11.18
2024-01-20T02:24:27.622Z,10.60
2024-01-20T02:27:29.434Z,11.50
2024-01-20T02:30:31.280Z,11.80
2024-01-20T02:33:33.140Z,11.30
2024-01-20T02:36:34.949Z,12.00
2024-01-20T02:39:36.669Z,10.02
2024-01-20T02:42:38.433Z,12.50
2024-01-20T02:45:40.150Z,10.57
2024-01-20T02:48:42.293Z,11.05
2024-01-20T02:51:44.015Z,11.38
2024-01-20T02:54:45.720Z,11.48
2024-01-20T02:57:47.503Z,11.20
2024-01-20T03:00:49.211Z,10.75
2024-01-20T03:03:50.956Z,10.50
2024-01-20T03:06:52.675Z,12.02
2024-01-20T03:09:54.441Z,12.52
2024-01-20T03:12:56.999Z,11.50
2024-01-20T03:15:58.804Z,10.90
2024-01-20T03:19:00.643Z,10.65
2024-01-20T03:22:02.443Z,10.43
2024-01-20T03:25:04.309Z,9.27
2024-01-20T03:28:06.171Z,10.52
2024-01-20T03:31:07.890Z,11.27
2024-01-20T03:34:10.538Z,10.35
2024-01-20T03:37:12.352Z,10.20
2024-01-20T03:40:14.228Z,10.20
2024-01-20T03:43:15.909Z,11.15
2024-01-20T03:46:19.476Z,10.45
2024-01-20T03:49:21.525Z,12.10
2024-01-20T03:52:23.389Z,11.50
2024-01-20T03:55:25.077Z,12.50
2024-01-20T03:58:26.857Z,11.93
2024-01-20T04:01:28.615Z,12.35
2024-01-20T04:04:30.393Z,11.75
2024-01-20T04:07:32.169Z,11.20
2024-01-20T04:10:33.901Z,12.13
2024-01-20T04:13:35.618Z,12.07
2024-01-20T04:16:37.767Z,11.85
2024-01-20T04:19:39.684Z,10.90
2024-01-20T04:22:41.420Z,11.75
2024-01-20T04:25:43.198Z,11.50
2024-01-20T04:28:45.411Z,10.95
2024-01-20T04:31:47.187Z,11.63
2024-01-20T04:34:48.935Z,11.02
2024-01-20T04:37:50.642Z,11.23
2024-01-20T04:40:52.456Z,10.90
2024-01-20T04:43:54.128Z,11.30
2024-01-20T04:46:55.817Z,11.43
2024-01-20T04:49:57.532Z,11.02
2024-01-20T04:52:59.238Z,11.82
2024-01-20T04:56:04.661Z,11.77
2024-01-20T04:59:06.328Z,12.25
2024-01-20T05:02:08.070Z,11.27
2024-01-20T05:05:10.130Z,11.05
2024-01-20T05:08:11.863Z,11.20
2024-01-20T05:11:13.720Z,11.57
2024-01-20T05:14:15.513Z,11.85
2024-01-20T05:17:17.213Z,11.85
2024-01-20T05:20:18.979Z,11.82
2024-01-20T05:23:20.724Z,11.20
2024-01-20T05:26:22.538Z,11.90
2024-01-20T05:29:24.522Z,12.90
2024-01-20T05:32:26.676Z,11.55
2024-01-20T05:35:28.409Z,11.85
2024-01-20T05:38:30.093Z,11.43
2024-01-20T05:41:31.836Z,9.57
2024-01-20T05:44:33.619Z,11.63
2024-01-20T05:47:35.417Z,11.20
2024-01-20T05:50:37.176Z,10.40
2024-01-20T05:53:38.988Z,12.68
2024-01-20T05:56:40.653Z,10.65
2024-01-20T05:59:42.354Z,11.48
2024-01-20T06:02:44.178Z,12.02
2024-01-20T06:05:45.881Z,11.27
2024-01-20T06:08:47.586Z,11.52
2024-01-20T06:11:49.923Z,11.70
2024-01-20T06:14:51.627Z,11.48
2024-01-20T06:17:53.417Z,11.38
2024-01-20T06:20:55.536Z,11.23
2024-01-20T06:23:57.323Z,10.68
2024-01-20T06:26:59.064Z,11.02
2024-01-20T06:30:01.093Z,11.82
2024-01-20T06:33:04.012Z,11.85
2024-01-20T06:36:06.309Z,11.68
2024-01-20T06:39:08.194Z,11.75
2024-01-20T06:42:11.599Z,10.98
2024-01-20T06:45:13.408Z,10.63
2024-01-20T06:48:15.301Z,12.20
2024-01-20T06:51:17.343Z,11.10
2024-01-20T06:54:19.237Z,11.20
2024-01-20T06:57:21.003Z,11.35
2024-01-20T07:00:22.867Z,10.85
2024-01-20T07:03:24.740Z,10.52
2024-01-20T07:06:26.569Z,10.52
2024-01-20T07:09:28.426Z,10.63
2024-01-20T07:12:31.020Z,10.10
2024-01-20T07:15:33.018Z,10.27
2024-01-20T07:18:34.756Z,10.13
2024-01-20T07:21:36.544Z,10.18
2024-01-20T07:24:38.522Z,11.90
2024-01-20T07:27:40.278Z,10.80
2024-01-20T07:30:42.039Z,11.25
2024-01-20T07:33:43.885Z,10.80
2024-01-20T07:36:46.103Z,11.55
2024-01-20T07:39:48.216Z,10.23
2024-01-20T07:42:50.045Z,11.50
2024-01-20T07:45:55.225Z,9.65
2024-01-20T07:48:57.056Z,10.63
2024-01-20T07:51:58.962Z,10.02
2024-01-20T07:55:00.771Z,8.90
2024-01-20T07:58:02.577Z,10.02
2024-01-20T08:01:04.557Z,10.40
2024-01-20T08:04:06.851Z,10.80
2024-01-20T08:07:10.107Z,10.82
2024-01-20T08:10:12.276Z,10.45
2024-01-20T08:13:13.999Z,9.75
2024-01-20T08:16:15.713Z,9.90
2024-01-20T08:19:17.532Z,9.07
2024-01-20T08:22:20.911Z,10.45
2024-01-20T08:25:23.047Z,10.70
2024-01-20T08:28:25.007Z,9.68
2024-01-20T08:31:26.778Z,8.90
2024-01-20T08:34:28.535Z,8.98
2024-01-20T08:37:30.333Z,9.32
2024-01-20T08:40:32.012Z,9.20
2024-01-20T08:43:33.714Z,8.32
2024-01-20T08:46:36.453Z,9.80
2024-01-20T08:49:38.247Z,8.07
2024-01-20T08:52:40.873Z,10.35
2024-01-20T08:55:42.720Z,9.82
2024-01-20T08:58:44.387Z,8.35
2024-01-20T09:01:46.396Z,8.82
2024-01-20T09:04:48.086Z,9.00
2024-01-20T09:07:49.767Z,9.18
2024-01-20T09:10:52.249Z,8.40
2024-01-20T09:13:54.033Z,8.70
2024-01-20T09:16:55.738Z,8.27
2024-01-20T09:19:57.603Z,8.45
2024-01-20T09:22:59.410Z,7.75
2024-01-20T09:26:01.100Z,8.73
2024-01-20T09:29:02.848Z,8.30
2024-01-20T09:32:05.013Z,7.72
2024-01-20T09:35:07.911Z,8.68
2024-01-20T09:38:09.957Z,8.50
2024-01-20T09:41:12.638Z,7.90
2024-01-20T09:44:16.447Z,8.27
2024-01-20T09:47:20.754Z,8.32
2024-01-20T09:50:22.577Z,12.85
2024-01-20T09:53:25.468Z,8.85
2024-01-20T09:56:30.447Z,11.65
2024-01-20T09:59:33.347Z,11.63
2024-01-20T10:02:36.640Z,10.27
2024-01-20T10:05:39.125Z,8.35
2024-01-20T10:08:40.955Z,7.68
2024-01-20T10:11:42.609Z,7.60
2024-01-20T10:14:44.425Z,7.28
2024-01-20T10:17:46.473Z,6.95
2024-01-20T10:20:49.126Z,7.65
2024-01-20T10:23:51.049Z,7.70
2024-01-20T10:26:53.707Z,6.93
2024-01-20T10:29:55.379Z,6.95
2024-01-20T10:33:08.606Z,6.47
2024-01-20T10:36:15.238Z,6.25
2024-01-20T10:39:21.116Z,7.20
2024-01-20T10:42:28.484Z,5.78
2024-01-20T10:45:40.059Z,6.32
2024-01-20T10:48:47.929Z,6.68
2024-01-20T10:51:51.020Z,7.75
2024-01-20T10:54:52.842Z,5.82
2024-01-20T10:57:55.649Z,5.50
2024-01-20T11:00:57.521Z,4.63
2024-01-20T11:03:59.372Z,5.97
2024-01-20T11:07:01.699Z,5.28
2024-01-20T11:10:05.082Z,5.50
2024-01-20T11:13:07.849Z,5.88
2024-01-20T11:16:19.008Z,5.80
2024-01-20T11:19:20.758Z,5.13
2024-01-20T11:22:36.786Z,5.25
2024-01-20T11:25:38.549Z,5.75
2024-01-20T11:28:44.378Z,5.57
2024-01-20T11:31:49.987Z,6.07
2024-01-20T11:34:51.845Z,6.65
2024-01-20T11:37:58.647Z,6.50
2024-01-20T11:44:03.242Z,6.50
2024-01-20T11:47:05.267Z,6.78
2024-01-20T11:50:08.034Z,6.95
2024-01-20T11:53:10.290Z,7.47
2024-01-20T11:56:12.057Z,6.70
2024-01-20T11:59:14.659Z,7.28
2024-01-20T12:02:17.364Z,7.10
2024-01-20T12:05:19.863Z,7.07
2024-01-20T12:08:22.201Z,6.80
2024-01-20T12:11:24.588Z,7.32
2024-01-20T12:14:26.369Z,7.53
2024-01-20T12:17:28.119Z,7.68
2024-01-20T12:20:30.095Z,7.22
2024-01-20T12:23:31.759Z,7.78
2024-01-20T12:26:33.399Z,8.10
2024-01-20T12:29:35.160Z,8.13
2024-01-20T12:32:36.884Z,7.30
2024-01-20T12:35:38.661Z,8.07
2024-01-20T12:38:40.443Z,7.70
2024-01-20T12:41:42.308Z,6.65
2024-01-20T12:44:44.053Z,7.47
2024-01-20T12:47:45.761Z,7.90
2024-01-20T12:50:47.486Z,8.15
2024-01-20T12:53:49.215Z,7.72
2024-01-20T12:56:50.864Z,7.82
2024-01-20T12:59:52.536Z,7.47
2024-01-20T13:02:54.318Z,7.70
2024-01-20T13:05:56.061Z,7.80
2024-01-20T13:08:57.740Z,6.32
2024-01-20T13:11:59.394Z,5.85
2024-01-20T13:15:01.442Z,5.35
2024-01-20T13:18:03.615Z,5.07
2024-01-20T13:21:05.533Z,5.22
2024-01-20T13:24:07.343Z,4.95
2024-01-20T13:27:09.112Z,5.78
2024-01-20T13:30:11.367Z,5.13
2024-01-20T13:33:13.469Z,5.20
2024-01-20T13:36:15.276Z,6.15
2024-01-20T13:39:17.088Z,4.85
2024-01-20T13:42:18.870Z,5.30
2024-01-20T13:45:20.628Z,3.53
2024-01-20T13:48:22.442Z,3.25
2024-01-20T13:51:25.878Z,2.95
2024-01-20T13:54:27.663Z,3.13
2024-01-20T13:57:29.594Z,3.28
2024-01-20T14:00:31.421Z,3.63
2024-01-20T14:03:33.523Z,2.92
2024-01-20T14:06:35.651Z,3.45
2024-01-20T14:09:37.423Z,3.92
2024-01-20T14:12:39.218Z,4.93
2024-01-20T14:15:41.236Z,4.25
2024-01-20T14:18:43.078Z,4.25
2024-01-20T14:21:44.812Z,4.75
2024-01-20T14:24:46.700Z,3.83
2024-01-20T14:27:48.415Z,4.30
2024-01-20T14:30:50.607Z,3.97
2024-01-20T14:33:52.523Z,4.10
2024-01-20T14:36:54.431Z,4.22
2024-01-20T14:39:56.081Z,4.45
2024-01-20T14:42:57.729Z,3.85
2024-01-20T14:45:59.423Z,4.40
2024-01-20T14:49:08.421Z,4.30
2024-01-20T14:52:10.547Z,4.22
2024-01-20T14:55:12.300Z,4.72
2024-01-20T14:58:14.021Z,4.53
2024-01-20T15:01:15.744Z,4.28
2024-01-20T15:04:17.681Z,4.68
2024-01-20T15:07:19.516Z,4.38
2024-01-20T15:10:22.453Z,4.40
2024-01-20T15:13:24.145Z,4.65
2024-01-20T15:16:25.823Z,4.13
2024-01-20T15:19:28.284Z,4.65
2024-01-20T15:22:30.065Z,5.35
2024-01-20T15:25:31.815Z,5.55
2024-01-20T15:28:33.726Z,4.60
2024-01-20T15:31:35.413Z,5.13
2024-01-20T15:34:37.182Z,5.53
2024-01-20T15:37:38.906Z,5.82
2024-01-20T15:40:40.980Z,5.45
2024-01-20T15:43:42.780Z,5.28
2024-01-20T15:46:45.503Z,5.65
2024-01-20T15:49:48.501Z,5.18
2024-01-20T15:52:50.617Z,6.80
2024-01-20T15:55:52.368Z,6.45
2024-01-20T15:58:54.001Z,5.40
2024-01-20T16:01:55.718Z,6.25
2024-01-20T16:04:57.421Z,5.10
2024-01-20T16:07:59.145Z,5.85
2024-01-20T16:11:00.933Z,5.97
2024-01-20T16:14:04.246Z,6.40
2024-01-20T16:17:05.940Z,5.50
2024-01-20T16:20:11.334Z,6.20
2024-01-20T16:23:17.777Z,6.70
2024-01-20T16:26:21.953Z,7.00
2024-01-20T16:29:23.733Z,7.85
2024-01-20T16:32:25.603Z,7.28
2024-01-20T16:35:27.338Z,6.88
2024-01-20T16:38:29.041Z,6.97
2024-01-20T16:41:30.752Z,7.78
2024-01-20T16:44:32.462Z,6.97
2024-01-20T16:47:34.274Z,6.97
2024-01-20T16:50:37.005Z,6.93
2024-01-20T16:53:41.633Z,7.78
2024-01-20T16:56:43.684Z,8.27
2024-01-20T16:59:45.479Z,8.55
2024-01-20T17:02:47.179Z,8.60
2024-01-20T17:05:51.474Z,7.30
2024-01-20T17:08:53.128Z,8.65
2024-01-20T17:11:54.887Z,8.75
2024-01-20T17:14:56.622Z,9.23
2024-01-20T17:17:58.331Z,7.97
2024-01-20T17:21:02.377Z,7.53
2024-01-20T17:24:04.306Z,7.68
2024-01-20T17:27:06.178Z,6.80
2024-01-20T17:30:09.271Z,7.35
2024-01-20T17:33:11.613Z,7.72
2024-01-20T17:36:13.530Z,7.05
2024-01-20T17:39:15.355Z,7.15
2024-01-20T17:42:17.239Z,6.85
2024-01-20T17:45:19.015Z,7.40
2024-01-20T17:48:21.153Z,7.00
2024-01-20T17:51:22.968Z,7.57
2024-01-20T17:54:28.432Z,7.20
2024-01-20T17:57:30.851Z,6.70
2024-01-20T18:00:32.752Z,7.00
2024-01-20T18:03:35.284Z,8.27
2024-01-20T18:06:37.749Z,7.30
2024-01-20T18:09:39.608Z,6.90
2024-01-20T18:12:42.698Z,6.28
2024-01-20T18:15:46.182Z,6.97
2024-01-20T18:18:48.180Z,7.90
2024-01-20T18:21:49.993Z,7.20
2024-01-20T18:24:51.840Z,6.55
2024-01-20T18:27:53.578Z,8.13
2024-01-20T18:30:55.367Z,6.82
2024-01-20T18:33:58.836Z,7.45
2024-01-20T18:37:01.297Z,6.82
2024-01-20T18:40:03.336Z,7.95
2024-01-20T18:43:05.176Z,8.18
2024-01-20T18:46:07.690Z,9.18
2024-01-20T18:49:09.443Z,8.90
2024-01-20T18:52:11.280Z,9.07
2024-01-20T18:55:12.989Z,8.55
2024-01-20T18:58:14.860Z,7.60
2024-01-20T19:01:16.681Z,8.80
2024-01-20T19:04:19.262Z,7.38
2024-01-20T19:07:21.548Z,7.68
2024-01-20T19:10:23.364Z,8.35
2024-01-20T19:13:25.560Z,7.55
2024-01-20T19:16:29.076Z,7.57
2024-01-20T19:19:32.544Z,8.00
2024-01-20T19:22:34.400Z,7.57
2024-01-20T19:25:36.196Z,7.80
2024-01-20T19:28:39.444Z,8.55
2024-01-20T19:31:41.089Z,7.68
2024-01-20T19:34:43.071Z,7.40
2024-01-20T19:37:44.940Z,7.75
2024-01-20T19:40:46.875Z,8.55
2024-01-20T19:43:48.663Z,7.72
2024-01-20T19:46:50.378Z,7.28
2024-01-20T19:49:54.521Z,6.03
2024-01-20T19:52:57.860Z,6.75
2024-01-20T19:55:59.745Z,6.00
2024-01-20T19:59:01.432Z,6.18
2024-01-20T20:02:03.364Z,5.75
2024-01-20T20:05:05.388Z,6.18
2024-01-20T20:08:07.343Z,5.63
2024-01-20T20:11:09.051Z,5.90
2024-01-20T20:14:12.806Z,5.82
2024-01-20T20:17:14.563Z,6.43
2024-01-20T20:20:16.292Z,5.93
2024-01-20T20:23:18.014Z,5.57
2024-01-20T20:26:19.681Z,6.18
2024-01-20T20:29:21.485Z,6.15
2024-01-20T20:32:23.857Z,6.13
2024-01-20T20:35:26.018Z,4.90
2024-01-20T20:38:27.767Z,9.80
2024-01-20T20:41:29.560Z,10.40
2024-01-20T20:44:31.230Z,6.28
2024-01-20T20:47:33.666Z,5.30
2024-01-20T20:50:35.385Z,4.88
2024-01-20T20:53:37.060Z,6.55
2024-01-20T20:56:38.745Z,5.35
2024-01-20T20:59:44.053Z,5.88
2024-01-20T21:02:46.053Z,6.35
2024-01-20T21:05:48.129Z,5.50
2024-01-20T21:08:49.816Z,6.15
2024-01-20T21:11:51.480Z,5.75
2024-01-20T21:14:53.339Z,6.55
2024-01-20T21:17:55.094Z,6.22
2024-01-20T21:20:56.807Z,6.95
2024-01-20T21:23:58.569Z,6.63
2024-01-20T21:27:00.268Z,6.72
2024-01-20T21:30:02.083Z,6.97
2024-01-20T21:33:04.676Z,10.05
2024-01-20T21:36:06.636Z,8.80
2024-01-20T21:39:10.746Z,16.98
2024-01-20T21:42:12.811Z,16.70
2024-01-20T21:45:14.580Z,32.90
2024-01-20T21:48:17.376Z,15.77
2024-01-20T21:51:19.286Z,12.95
2024-01-20T21:54:21.066Z,7.10
2024-01-20T21:57:22.845Z,7.05
2024-01-20T22:00:24.967Z,6.75
2024-01-20T22:03:27.017Z,6.78
2024-01-20T22:06:28.891Z,6.50
2024-01-20T22:09:30.654Z,7.32
2024-01-20T22:12:32.932Z,6.90
2024-01-20T22:15:34.670Z,7.25
2024-01-20T22:18:36.453Z,6.75
2024-01-20T22:21:40.186Z,6.32
2024-01-20T22:24:41.985Z,8.30
2024-01-20T22:27:43.754Z,7.30
2024-01-20T22:30:45.515Z,6.80
2024-01-20T22:33:47.274Z,7.07
2024-01-20T22:36:49.239Z,6.60
2024-01-20T22:39:51.028Z,7.82
2024-01-20T22:42:52.853Z,7.13
2024-01-20T22:45:55.174Z,8.20
2024-01-20T22:48:57.034Z,7.65
2024-01-20T22:51:59.218Z,7.28
2024-01-20T22:55:00.943Z,7.68
2024-01-20T22:58:02.848Z,8.35
2024-01-20T23:01:05.541Z,7.10
2024-01-20T23:04:07.466Z,7.95
2024-01-20T23:07:09.243Z,7.97
2024-01-20T23:10:11.294Z,11.07
2024-01-20T23:13:13.304Z,10.48
2024-01-20T23:16:15.000Z,8.52
2024-01-20T23:19:16.831Z,9.05
2024-01-20T23:22:18.520Z,8.85
2024-01-20T23:25:20.224Z,8.70
2024-01-20T23:28:21.893Z,9.25
2024-01-20T23:31:24.091Z,8.85
2024-01-20T23:34:25.887Z,8.50
2024-01-20T23:37:27.606Z,8.80
2024-01-20T23:40:29.287Z,8.38
2024-01-20T23:43:31.000Z,7.70
2024-01-20T23:46:32.652Z,8.60
2024-01-20T23:49:34.427Z,7.97
2024-01-20T23:52:36.503Z,8.70
2024-01-20T23:55:38.234Z,9.13
2024-01-20T23:58:40.064Z,7.57
